Time;durP1;ratioP1;P1;durP2;ratioP2;P2;SDS_P1;SDS_P2;PMS_P1;PMS_P2;Temp;Humidity;BMP_temperature;BMP_pressure;BME280_temperature;BME280_humidity;BME280_pressure;Samples;Min_cycle;Max_cycle;Signal;HPM_P1;HPM_P2
2022/03/02 00:01:14;;;;;;;6.20;4.18;;;;;;;;;;5025134;28;20108;-84
2022/03/02 00:03:41;;;;;;;4.07;2.72;;;;;;;;;;5026392;28;20025;-84
2022/03/02 00:06:06;;;;;;;4.00;3.20;;;;;;;;;;5027271;28;20068;-84
2022/03/02 00:08:32;;;;;;;5.43;2.85;;;;;;;;;;5020130;28;20034;-86
2022/03/02 00:10:57;;;;;;;4.05;2.92;;;;;;;;;;5028738;28;20389;-84
2022/03/02 00:13:23;;;;;;;3.50;2.28;;;;;;;;;;5026927;28;20032;-85
2022/03/02 00:15:48;;;;;;;4.65;2.85;;;;;;;;;;5027520;28;20025;-88
2022/03/02 00:18:14;;;;;;;15.68;8.20;;;;;;;;;;5024648;28;20517;-85
2022/03/02 00:20:40;;;;;;;19.30;10.77;;;;;;;;;;5020037;28;20025;-86
2022/03/02 00:23:06;;;;;;;20.63;12.30;;;;;;;;;;5025512;28;20114;-84
2022/03/02 00:25:31;;;;;;;20.40;11.98;;;;;;;;;;5013908;28;20076;-84
2022/03/02 00:27:57;;;;;;;22.05;12.77;;;;;;;;;;5018345;28;20425;-84
2022/03/02 00:30:23;;;;;;;24.10;15.05;;;;;;;;;;5021564;28;20034;-84
2022/03/02 00:32:49;;;;;;;22.23;14.00;;;;;;;;;;5017635;28;20164;-85
2022/03/02 00:35:14;;;;;;;20.73;13.10;;;;;;;;;;5021538;28;20134;-86
2022/03/02 00:37:40;;;;;;;21.42;11.38;;;;;;;;;;5027675;28;20585;-86
2022/03/02 00:40:06;;;;;;;20.17;11.18;;;;;;;;;;5023532;28;20064;-87
2022/03/02 00:42:32;;;;;;;16.98;10.43;;;;;;;;;;5027916;28;20048;-84
2022/03/02 00:44:57;;;;;;;21.63;12.15;;;;;;;;;;5021005;28;20021;-85
2022/03/02 00:47:23;;;;;;;18.30;12.85;;;;;;;;;;5040394;28;20021;-87
2022/03/02 00:49:49;;;;;;;20.02;12.18;;;;;;;;;;5016861;28;20389;-85
2022/03/02 00:52:15;;;;;;;19.65;11.05;;;;;;;;;;5020599;28;20033;-83
2022/03/02 00:54:40;;;;;;;24.73;16.08;;;;;;;;;;5022272;28;20033;-83
2022/03/02 00:57:06;;;;;;;22.00;12.85;;;;;;;;;;5025307;28;20037;-84
2022/03/02 00:59:32;;;;;;;19.13;10.75;;;;;;;;;;5019777;28;20026;-84
2022/03/02 01:01:58;;;;;;;19.52;11.75;;;;;;;;;;5023864;28;20053;-85
2022/03/02 01:04:23;;;;;;;18.17;10.95;;;;;;;;;;5023317;28;20444;-85
2022/03/02 01:06:49;;;;;;;22.65;14.02;;;;;;;;;;5022186;28;20457;-85
2022/03/02 01:09:15;;;;;;;14.63;9.63;;;;;;;;;;5033488;28;20026;-86
2022/03/02 01:11:40;;;;;;;16.08;8.55;;;;;;;;;;5024810;28;20025;-88
2022/03/02 01:14:06;;;;;;;14.05;7.82;;;;;;;;;;5018392;28;20037;-89
2022/03/02 01:16:33;;;;;;;13.05;8.32;;;;;;;;;;5022380;28;20136;-87
2022/03/02 01:18:58;;;;;;;9.73;6.43;;;;;;;;;;5022144;28;20492;-83
2022/03/02 01:21:24;;;;;;;7.97;5.85;;;;;;;;;;5018283;28;20022;-85
2022/03/02 01:23:49;;;;;;;9.18;5.10;;;;;;;;;;5024477;28;20188;-87
2022/03/02 01:26:15;;;;;;;8.98;5.25;;;;;;;;;;5021565;28;20036;-88
2022/03/02 01:28:40;;;;;;;6.03;3.80;;;;;;;;;;5021185;28;20029;-88
2022/03/02 01:31:07;;;;;;;7.30;3.97;;;;;;;;;;5017916;28;20031;-87
2022/03/02 01:33:32;;;;;;;5.30;3.75;;;;;;;;;;5019593;28;20033;-87
2022/03/02 01:35:58;;;;;;;3.78;2.97;;;;;;;;;;5023056;28;20092;-88
2022/03/02 01:38:24;;;;;;;5.13;3.05;;;;;;;;;;5021273;28;20117;-86
2022/03/02 01:40:49;;;;;;;4.47;2.47;;;;;;;;;;5022596;28;20023;-87
2022/03/02 01:43:15;;;;;;;4.00;2.85;;;;;;;;;;5021953;28;20121;-84
2022/03/02 01:45:41;;;;;;;4.82;2.85;;;;;;;;;;5017530;28;20036;-87
2022/03/02 01:48:06;;;;;;;3.50;2.58;;;;;;;;;;5021700;28;20472;-85
2022/03/02 01:50:32;;;;;;;4.18;2.60;;;;;;;;;;5018126;28;20044;-86
2022/03/02 01:52:58;;;;;;;3.42;2.55;;;;;;;;;;5024915;28;20032;-87
2022/03/02 01:55:24;;;;;;;4.47;2.92;;;;;;;;;;5027389;28;20037;-85
2022/03/02 01:57:50;;;;;;;4.68;3.35;;;;;;;;;;5017920;28;20030;-84
2022/03/02 02:00:23;;;;;;;2.67;2.20;;;;;;;;;;5025509;28;20385;-85
2022/03/02 02:02:50;;;;;;;5.28;3.13;;;;;;;;;;5018776;28;20017;-86
2022/03/02 02:05:17;;;;;;;5.90;3.53;;;;;;;;;;5020654;28;20512;-85
2022/03/02 02:07:43;;;;;;;3.97;2.83;;;;;;;;;;5018620;28;20020;-83
2022/03/02 02:10:09;;;;;;;4.57;2.42;;;;;;;;;;5023728;28;20164;-89
2022/03/02 02:12:35;;;;;;;4.65;3.80;;;;;;;;;;5020086;28;20414;-88
2022/03/02 02:15:03;;;;;;;4.30;3.20;;;;;;;;;;5018814;28;20033;-86
2022/03/02 02:17:28;;;;;;;3.90;2.63;;;;;;;;;;5018395;28;20022;-86
2022/03/02 02:19:56;;;;;;;4.38;2.90;;;;;;;;;;5018039;28;20030;-89
2022/03/02 02:22:22;;;;;;;4.78;3.28;;;;;;;;;;5021051;28;20381;-84
2022/03/02 02:24:47;;;;;;;6.18;3.50;;;;;;;;;;5022651;28;20021;-87
2022/03/02 02:27:15;;;;;;;4.95;2.72;;;;;;;;;;5014527;28;20546;-85
2022/03/02 02:29:42;;;;;;;4.20;2.55;;;;;;;;;;5023460;28;20105;-85
2022/03/02 02:32:08;;;;;;;4.35;3.22;;;;;;;;;;5018769;28;20025;-87
2022/03/02 02:34:34;;;;;;;4.00;2.50;;;;;;;;;;5019770;28;20026;-88
2022/03/02 02:37:00;;;;;;;4.65;2.67;;;;;;;;;;5019610;28;20025;-90
2022/03/02 02:39:27;;;;;;;6.03;3.42;;;;;;;;;;5021379;28;20053;-89
2022/03/02 02:41:52;;;;;;;4.10;2.22;;;;;;;;;;5020233;28;20049;-87
2022/03/02 02:44:18;;;;;;;6.25;3.10;;;;;;;;;;5010479;28;20409;-88
2022/03/02 02:46:44;;;;;;;5.50;3.60;;;;;;;;;;5024096;28;20093;-86
2022/03/02 02:49:11;;;;;;;6.75;4.68;;;;;;;;;;5018467;28;20018;-89
2022/03/02 02:51:38;;;;;;;3.58;2.33;;;;;;;;;;5018840;28;20037;-84
2022/03/02 02:54:04;;;;;;;5.88;3.30;;;;;;;;;;5039071;28;20109;-86
2022/03/02 02:56:29;;;;;;;5.28;3.70;;;;;;;;;;5019395;28;20116;-84
2022/03/02 02:58:55;;;;;;;4.50;3.63;;;;;;;;;;5014029;28;20069;-89
2022/03/02 03:01:21;;;;;;;6.05;3.45;;;;;;;;;;5021486;28;20504;-85
2022/03/02 03:03:47;;;;;;;5.65;3.13;;;;;;;;;;5025091;28;20095;-86
2022/03/02 03:06:13;;;;;;;4.90;3.08;;;;;;;;;;5025068;28;20077;-88
2022/03/02 03:08:39;;;;;;;4.47;2.58;;;;;;;;;;5017187;28;20516;-88
2022/03/02 03:11:05;;;;;;;5.97;3.75;;;;;;;;;;5024392;28;20029;-89
2022/03/02 03:13:31;;;;;;;5.20;2.50;;;;;;;;;;5024945;28;20044;-87
2022/03/02 03:15:56;;;;;;;5.13;2.60;;;;;;;;;;5021747;28;20029;-84
2022/03/02 03:18:22;;;;;;;5.50;3.65;;;;;;;;;;5037864;28;20021;-83
2022/03/02 03:20:47;;;;;;;7.00;4.15;;;;;;;;;;5024365;28;20041;-84
2022/03/02 03:23:13;;;;;;;6.25;3.00;;;;;;;;;;5021187;28;20029;-85
2022/03/02 03:25:38;;;;;;;5.38;3.72;;;;;;;;;;5019256;28;20053;-85
2022/03/02 03:28:05;;;;;;;6.22;4.32;;;;;;;;;;5018931;28;20037;-88
2022/03/02 03:30:31;;;;;;;5.72;3.45;;;;;;;;;;5025424;28;20037;-86
2022/03/02 03:32:57;;;;;;;6.47;4.03;;;;;;;;;;5024360;28;20496;-86
2022/03/02 03:35:24;;;;;;;6.85;4.50;;;;;;;;;;5018697;28;20036;-89
2022/03/02 03:37:50;;;;;;;7.30;5.13;;;;;;;;;;5021727;28;20371;-86
2022/03/02 03:40:17;;;;;;;6.00;4.38;;;;;;;;;;5023836;28;20029;-87
2022/03/02 03:42:43;;;;;;;10.80;5.88;;;;;;;;;;5019281;28;20108;-88
2022/03/02 03:45:09;;;;;;;11.68;5.95;;;;;;;;;;5024348;28;20420;-88
2022/03/02 03:47:36;;;;;;;10.57;5.20;;;;;;;;;;5021913;28;20390;-87
2022/03/02 03:50:03;;;;;;;10.57;5.82;;;;;;;;;;5028575;28;20025;-89
2022/03/02 03:52:29;;;;;;;8.93;5.32;;;;;;;;;;5020673;28;20051;-86
2022/03/02 03:54:54;;;;;;;6.55;4.90;;;;;;;;;;5023275;28;20032;-83
2022/03/02 03:57:20;;;;;;;7.78;4.75;;;;;;;;;;5022632;28;20109;-88
2022/03/02 03:59:45;;;;;;;4.28;2.60;;;;;;;;;;5022039;28;20029;-89
2022/03/02 04:02:11;;;;;;;5.63;3.92;;;;;;;;;;5024014;28;20465;-87
2022/03/02 04:04:37;;;;;;;5.40;2.97;;;;;;;;;;5022441;28;20057;-83
2022/03/02 04:07:02;;;;;;;4.63;3.25;;;;;;;;;;5021444;28;20030;-88
2022/03/02 04:09:28;;;;;;;4.45;2.92;;;;;;;;;;5029605;28;20044;-87
2022/03/02 04:11:54;;;;;;;4.55;2.80;;;;;;;;;;5022918;28;20029;-86
2022/03/02 04:14:19;;;;;;;5.45;4.03;;;;;;;;;;5023188;28;20462;-84
2022/03/02 04:16:45;;;;;;;4.43;3.10;;;;;;;;;;5022833;28;20059;-85
2022/03/02 04:19:10;;;;;;;6.18;3.55;;;;;;;;;;5025087;28;20333;-85
2022/03/02 04:21:36;;;;;;;4.43;3.25;;;;;;;;;;5018979;28;20060;-84
2022/03/02 04:24:01;;;;;;;5.32;3.50;;;;;;;;;;5023221;28;20033;-85
2022/03/02 04:26:27;;;;;;;5.25;3.35;;;;;;;;;;5019181;28;20033;-87
2022/03/02 04:28:52;;;;;;;8.18;4.03;;;;;;;;;;5026455;28;20485;-86
2022/03/02 04:31:18;;;;;;;6.97;4.20;;;;;;;;;;5021288;28;20025;-85
2022/03/02 04:33:43;;;;;;;6.22;3.65;;;;;;;;;;5021892;28;20017;-88
2022/03/02 04:36:09;;;;;;;5.85;3.30;;;;;;;;;;5018313;28;20116;-85
2022/03/02 04:38:35;;;;;;;6.78;4.25;;;;;;;;;;5020216;28;20133;-86
2022/03/02 04:41:01;;;;;;;6.50;3.50;;;;;;;;;;5019742;28;20129;-89
2022/03/02 04:43:27;;;;;;;5.30;3.78;;;;;;;;;;5021404;28;20778;-84
2022/03/02 04:45:53;;;;;;;8.18;4.85;;;;;;;;;;5022131;28;20034;-88
2022/03/02 04:48:18;;;;;;;5.25;3.63;;;;;;;;;;5026177;28;20056;-90
2022/03/02 04:50:44;;;;;;;4.05;3.13;;;;;;;;;;5024572;28;20050;-93
2022/03/02 04:53:10;;;;;;;7.30;2.88;;;;;;;;;;5024218;28;20095;-87
2022/03/02 04:55:35;;;;;;;4.40;2.72;;;;;;;;;;5021541;28;20378;-87
2022/03/02 04:58:02;;;;;;;6.00;3.35;;;;;;;;;;5018907;28;20079;-85
2022/03/02 05:00:31;;;;;;;6.60;5.70;;;;;;;;;;5026323;28;20072;-87
2022/03/02 05:02:58;;;;;;;5.07;3.50;;;;;;;;;;5021225;28;20033;-88
2022/03/02 05:05:26;;;;;;;4.20;2.75;;;;;;;;;;5025550;28;20053;-88
2022/03/02 05:07:51;;;;;;;5.15;3.45;;;;;;;;;;5026420;28;20061;-87
2022/03/02 05:10:20;;;;;;;4.65;2.97;;;;;;;;;;5025819;28;20199;-86
2022/03/02 05:12:46;;;;;;;5.25;3.97;;;;;;;;;;5018001;28;20029;-89
2022/03/02 05:15:14;;;;;;;6.22;3.78;;;;;;;;;;5018372;28;20021;-86
2022/03/02 05:17:40;;;;;;;4.88;2.75;;;;;;;;;;5026416;28;20102;-87
2022/03/02 05:20:07;;;;;;;7.10;3.92;;;;;;;;;;5019055;28;20465;-87
2022/03/02 05:22:32;;;;;;;6.57;4.28;;;;;;;;;;5023318;28;20026;-86
2022/03/02 05:24:58;;;;;;;5.40;3.70;;;;;;;;;;5025017;28;20044;-86
2022/03/02 05:27:24;;;;;;;5.30;3.58;;;;;;;;;;5025270;28;20501;-87
2022/03/02 05:29:49;;;;;;;8.48;6.00;;;;;;;;;;5023732;28;20425;-88
2022/03/02 05:32:19;;;;;;;6.13;4.97;;;;;;;;;;5019278;28;20033;-86
2022/03/02 05:34:44;;;;;;;5.47;4.13;;;;;;;;;;5025161;28;20026;-85
2022/03/02 05:37:10;;;;;;;5.90;4.35;;;;;;;;;;5019933;28;20036;-85
2022/03/02 05:39:35;;;;;;;10.05;5.28;;;;;;;;;;5022958;28;20426;-86
2022/03/02 05:42:01;;;;;;;6.25;4.38;;;;;;;;;;5024248;28;20076;-87
2022/03/02 05:44:27;;;;;;;6.93;4.32;;;;;;;;;;5026017;28;20108;-86
2022/03/02 05:46:52;;;;;;;8.98;6.35;;;;;;;;;;5019506;28;20060;-87
2022/03/02 05:49:18;;;;;;;7.75;3.58;;;;;;;;;;5013669;28;20940;-83
2022/03/02 05:51:44;;;;;;;6.72;4.72;;;;;;;;;;5012952;28;20033;-83
2022/03/02 05:54:10;;;;;;;9.55;5.50;;;;;;;;;;5018667;28;20087;-84
2022/03/02 05:56:39;;;;;;;12.52;6.60;;;;;;;;;;5017704;28;20113;-85
2022/03/02 05:59:05;;;;;;;6.90;4.80;;;;;;;;;;5013731;28;20389;-85
2022/03/02 06:01:31;;;;;;;9.48;6.00;;;;;;;;;;5012576;28;20036;-84
2022/03/02 06:03:58;;;;;;;8.25;5.13;;;;;;;;;;5014673;28;20086;-85
2022/03/02 06:06:23;;;;;;;8.98;6.00;;;;;;;;;;5038542;28;20041;-81
2022/03/02 06:08:50;;;;;;;10.52;5.93;;;;;;;;;;5017867;28;20021;-85
2022/03/02 06:11:16;;;;;;;9.57;6.82;;;;;;;;;;5017468;28;20022;-83
2022/03/02 06:13:42;;;;;;;12.55;7.35;;;;;;;;;;5024480;28;20492;-87
2022/03/02 06:16:08;;;;;;;10.27;6.47;;;;;;;;;;5012847;28;20030;-82
2022/03/02 06:18:34;;;;;;;7.80;5.35;;;;;;;;;;5026316;28;20484;-85
2022/03/02 06:21:01;;;;;;;7.25;5.07;;;;;;;;;;5020909;28;20025;-85
2022/03/02 06:23:28;;;;;;;7.68;4.55;;;;;;;;;;5021803;28;20381;-85
2022/03/02 06:25:53;;;;;;;4.75;3.33;;;;;;;;;;5014678;28;20025;-85
2022/03/02 06:28:19;;;;;;;5.82;4.80;;;;;;;;;;5019794;28;20026;-84
2022/03/02 06:30:45;;;;;;;7.07;3.65;;;;;;;;;;5016919;28;20038;-87
2022/03/02 06:33:14;;;;;;;5.95;3.60;;;;;;;;;;5022771;28;20022;-86
2022/03/02 06:35:39;;;;;;;6.10;4.40;;;;;;;;;;5021586;28;20469;-84
2022/03/02 06:38:05;;;;;;;6.78;4.80;;;;;;;;;;5019686;28;20026;-84
2022/03/02 06:40:30;;;;;;;8.77;6.05;;;;;;;;;;5018470;28;20049;-84
2022/03/02 06:43:08;;;;;;;8.10;6.05;;;;;;;;;;5014222;28;20025;-84
2022/03/02 06:45:42;;;;;;;7.35;4.43;;;;;;;;;;5020137;28;20037;-85
2022/03/02 06:48:12;;;;;;;5.60;4.00;;;;;;;;;;5024891;28;20021;-85
2022/03/02 06:50:40;;;;;;;6.93;4.63;;;;;;;;;;5022041;28;20033;-84
2022/03/02 06:53:11;;;;;;;7.47;4.65;;;;;;;;;;5026868;28;20045;-86
2022/03/02 06:55:40;;;;;;;10.88;6.40;;;;;;;;;;5020997;28;20041;-84
2022/03/02 06:58:09;;;;;;;7.10;4.88;;;;;;;;;;5033582;28;20032;-85
2022/03/02 07:00:36;;;;;;;7.60;5.25;;;;;;;;;;5025276;28;20032;-83
2022/03/02 07:03:09;;;;;;;7.82;5.05;;;;;;;;;;5021095;28;20038;-87
2022/03/02 07:05:35;;;;;;;6.75;4.47;;;;;;;;;;5022106;28;20147;-84
2022/03/02 07:08:03;;;;;;;7.15;5.22;;;;;;;;;;5025333;28;20018;-86
2022/03/02 07:10:33;;;;;;;7.25;5.15;;;;;;;;;;5020297;28;20029;-84
2022/03/02 07:13:01;;;;;;;11.60;6.93;;;;;;;;;;5022500;28;20038;-84
2022/03/02 07:15:27;;;;;;;11.30;5.95;;;;;;;;;;5025208;28;20026;-85
2022/03/02 07:17:53;;;;;;;7.10;5.32;;;;;;;;;;5021743;28;20018;-87
2022/03/02 07:20:20;;;;;;;8.25;6.30;;;;;;;;;;5024747;28;20117;-86
2022/03/02 07:22:54;;;;;;;10.30;5.93;;;;;;;;;;5047914;28;20518;-85
2022/03/02 07:25:27;;;;;;;8.30;6.07;;;;;;;;;;5025890;28;20454;-84
2022/03/02 07:27:58;;;;;;;10.70;5.45;;;;;;;;;;5026770;28;20014;-84
2022/03/02 07:30:25;;;;;;;9.65;6.30;;;;;;;;;;5023994;28;20104;-86
2022/03/02 07:32:59;;;;;;;10.82;5.38;;;;;;;;;;5040002;28;20053;-82
2022/03/02 07:35:25;;;;;;;9.48;6.18;;;;;;;;;;5023051;28;20033;-85
2022/03/02 07:37:54;;;;;;;5.90;4.20;;;;;;;;;;5026640;28;20057;-86
2022/03/02 07:40:19;;;;;;;8.15;5.20;;;;;;;;;;5021356;28;20028;-87
2022/03/02 07:42:46;;;;;;;8.10;5.65;;;;;;;;;;5025853;28;20100;-85
2022/03/02 07:45:11;;;;;;;8.25;5.13;;;;;;;;;;5031947;28;20017;-85
2022/03/02 07:47:37;;;;;;;5.70;4.40;;;;;;;;;;5048994;28;20026;-85
2022/03/02 07:50:03;;;;;;;9.73;6.43;;;;;;;;;;5034496;28;20025;-86
2022/03/02 07:52:30;;;;;;;12.02;6.20;;;;;;;;;;5021708;28;20068;-85
2022/03/02 07:55:09;;;;;;;12.63;7.10;;;;;;;;;;5022477;28;20037;-85
2022/03/02 07:57:35;;;;;;;11.90;6.65;;;;;;;;;;5021861;28;20100;-84
2022/03/02 08:00:12;;;;;;;10.95;6.22;;;;;;;;;;5018220;28;20033;-84
2022/03/02 08:02:40;;;;;;;10.63;6.53;;;;;;;;;;5021856;28;20120;-86
2022/03/02 08:05:07;;;;;;;8.63;6.20;;;;;;;;;;5021493;28;20041;-87
2022/03/02 08:07:34;;;;;;;8.70;6.30;;;;;;;;;;5017470;28;20038;-86
2022/03/02 08:10:00;;;;;;;10.80;6.50;;;;;;;;;;5026427;28;20026;-84
2022/03/02 08:12:26;;;;;;;9.07;6.38;;;;;;;;;;5018412;28;20088;-85
2022/03/02 08:14:52;;;;;;;12.70;8.35;;;;;;;;;;5022687;28;20378;-87
2022/03/02 08:17:19;;;;;;;9.77;6.82;;;;;;;;;;5023210;28;20025;-87
2022/03/02 08:19:46;;;;;;;9.20;6.45;;;;;;;;;;5016618;28;20063;-84
2022/03/02 08:22:20;;;;;;;10.95;6.80;;;;;;;;;;5026957;28;20048;-85
2022/03/02 08:25:12;;;;;;;13.48;7.55;;;;;;;;;;5019952;28;20076;-87
2022/03/02 08:27:39;;;;;;;12.52;6.85;;;;;;;;;;5025423;28;20465;-86
2022/03/02 08:30:06;;;;;;;12.18;8.18;;;;;;;;;;5024463;28;20026;-85
2022/03/02 08:32:37;;;;;;;10.88;6.47;;;;;;;;;;5014699;28;20037;-85
2022/03/02 08:35:04;;;;;;;14.50;7.93;;;;;;;;;;5016844;28;20037;-86
2022/03/02 08:37:30;;;;;;;10.60;7.80;;;;;;;;;;5032277;28;20535;-84
2022/03/02 08:39:56;;;;;;;9.80;5.93;;;;;;;;;;5024113;28;20025;-84
2022/03/02 08:42:22;;;;;;;10.15;6.00;;;;;;;;;;5026851;28;20041;-85
2022/03/02 08:44:47;;;;;;;13.07;7.68;;;;;;;;;;5024941;28;20388;-84
2022/03/02 08:47:14;;;;;;;9.10;6.35;;;;;;;;;;5020526;28;20029;-87
2022/03/02 08:49:39;;;;;;;11.88;7.22;;;;;;;;;;5022867;28;20083;-83
2022/03/02 08:52:06;;;;;;;10.93;8.32;;;;;;;;;;5018997;28;20462;-85
2022/03/02 08:54:48;;;;;;;13.82;9.73;;;;;;;;;;5026603;28;20402;-83
2022/03/02 08:57:18;;;;;;;11.73;7.20;;;;;;;;;;5023798;28;20025;-84
2022/03/02 08:59:44;;;;;;;;;;;;;;;;;;5018135;28;20147;-83
2022/03/02 09:02:10;;;;;;;11.23;6.70;;;;;;;;;;5023428;28;20396;-86
2022/03/02 09:04:36;;;;;;;11.35;7.45;;;;;;;;;;5022261;28;20045;-86
2022/03/02 09:07:04;;;;;;;9.20;6.72;;;;;;;;;;5017584;28;20034;-84
2022/03/02 09:09:30;;;;;;;10.05;6.30;;;;;;;;;;5020121;28;20035;-84
2022/03/02 09:11:56;;;;;;;10.65;7.57;;;;;;;;;;5021918;28;20030;-85
2022/03/02 09:14:23;;;;;;;11.05;6.68;;;;;;;;;;5020219;28;20033;-84
2022/03/02 09:16:49;;;;;;;9.70;7.40;;;;;;;;;;5019161;28;20125;-83
2022/03/02 09:19:15;;;;;;;10.55;6.60;;;;;;;;;;5019807;28;20101;-83
2022/03/02 09:21:43;;;;;;;17.83;10.27;;;;;;;;;;5022684;28;20029;-83
2022/03/02 09:24:09;;;;;;;14.27;8.52;;;;;;;;;;5022279;28;20026;-87
2022/03/02 09:26:38;;;;;;;9.32;6.25;;;;;;;;;;5019418;28;20544;-85
2022/03/02 09:29:05;;;;;;;13.25;7.82;;;;;;;;;;5021099;28;20033;-84
2022/03/02 09:31:33;;;;;;;12.20;7.68;;;;;;;;;;5015274;28;20042;-84
2022/03/02 09:33:58;;;;;;;11.38;7.38;;;;;;;;;;5016366;28;20030;-82
2022/03/02 09:36:26;;;;;;;12.15;7.15;;;;;;;;;;5013742;28;20026;-84
2022/03/02 09:38:52;;;;;;;11.60;7.53;;;;;;;;;;5019920;28;20029;-83
2022/03/02 09:41:49;;;;;;;11.43;7.50;;;;;;;;;;5025185;28;20789;-83
2022/03/02 09:44:18;;;;;;;9.25;6.35;;;;;;;;;;5016279;28;20033;-84
2022/03/02 09:46:48;;;;;;;10.75;7.70;;;;;;;;;;5018711;28;20022;-84
2022/03/02 09:49:20;;;;;;;8.32;5.95;;;;;;;;;;5022835;28;20021;-85
2022/03/02 09:51:51;;;;;;;10.48;7.18;;;;;;;;;;5023676;28;20045;-83
2022/03/02 09:54:21;;;;;;;11.88;7.05;;;;;;;;;;5018081;28;20129;-84
2022/03/02 09:56:50;;;;;;;10.82;7.82;;;;;;;;;;5037602;28;20046;-85
2022/03/02 09:59:18;;;;;;;11.45;7.65;;;;;;;;;;5032178;28;20030;-81
2022/03/02 10:01:44;;;;;;;10.57;7.18;;;;;;;;;;5017765;28;20032;-85
2022/03/02 10:04:29;;;;;;;10.90;6.32;;;;;;;;;;5018182;28;20033;-82
2022/03/02 10:07:45;;;;;;;14.15;8.80;;;;;;;;;;5019097;28;20048;-82
2022/03/02 10:09:47;;;;;;;10.18;6.32;;;;;;;;;;5022188;28;20048;-82
2022/03/02 10:12:15;;;;;;;12.02;8.20;;;;;;;;;;5020092;28;20030;-83
2022/03/02 10:14:42;;;;;;;12.13;8.18;;;;;;;;;;5019970;28;20109;-83
2022/03/02 10:17:11;;;;;;;15.15;9.45;;;;;;;;;;5020160;28;20044;-84
2022/03/02 10:19:45;;;;;;;12.18;8.15;;;;;;;;;;5017338;28;20037;-85
2022/03/02 10:22:23;;;;;;;12.05;8.52;;;;;;;;;;5015157;28;20067;-88
2022/03/02 10:24:49;;;;;;;10.30;7.63;;;;;;;;;;5013796;28;20088;-85
2022/03/02 10:27:34;;;;;;;12.05;9.13;;;;;;;;;;5021031;28;20064;-83
2022/03/02 10:30:08;;;;;;;10.32;7.35;;;;;;;;;;5018449;28;20104;-86
2022/03/02 10:32:35;;;;;;;18.67;10.65;;;;;;;;;;5031870;28;20571;-81
2022/03/02 10:35:09;;;;;;;16.75;10.15;;;;;;;;;;5018050;28;20044;-83
2022/03/02 10:37:37;;;;;;;17.42;12.85;;;;;;;;;;5016872;28;20362;-83
2022/03/02 10:40:09;;;;;;;14.10;8.35;;;;;;;;;;5017964;28;20022;-85
2022/03/02 10:42:48;;;;;;;14.07;8.73;;;;;;;;;;5014511;28;20026;-84
2022/03/02 10:45:18;;;;;;;16.45;10.80;;;;;;;;;;5029149;28;20117;-83
2022/03/02 10:48:10;;;;;;;15.68;9.50;;;;;;;;;;5016486;28;20036;-85
2022/03/02 10:50:37;;;;;;;13.30;8.23;;;;;;;;;;5016161;28;20034;-86
2022/03/02 10:53:05;;;;;;;12.18;7.65;;;;;;;;;;5015956;28;20034;-83
2022/03/02 10:55:32;;;;;;;13.23;9.25;;;;;;;;;;5014504;28;20022;-88
2022/03/02 10:58:02;;;;;;;10.68;7.60;;;;;;;;;;5022133;28;20477;-83
2022/03/02 11:00:27;;;;;;;11.60;7.78;;;;;;;;;;5018820;28;20037;-83
2022/03/02 11:02:57;;;;;;;15.23;8.70;;;;;;;;;;5019781;28;20056;-84
2022/03/02 11:05:25;;;;;;;12.10;8.40;;;;;;;;;;5021983;28;20092;-85
2022/03/02 11:07:51;;;;;;;12.57;8.88;;;;;;;;;;5019995;28;20365;-85
2022/03/02 11:10:20;;;;;;;12.07;7.35;;;;;;;;;;5021585;28;20413;-88
2022/03/02 11:12:49;;;;;;;10.38;6.97;;;;;;;;;;5018965;28;20128;-85
2022/03/02 11:15:17;;;;;;;13.30;8.93;;;;;;;;;;5019037;28;20062;-89
2022/03/02 11:17:59;;;;;;;14.75;9.02;;;;;;;;;;5016372;28;20033;-85
2022/03/02 11:20:27;;;;;;;15.57;9.82;;;;;;;;;;5013475;28;20061;-85
2022/03/02 11:22:59;;;;;;;11.80;7.68;;;;;;;;;;5023196;28;20465;-82
2022/03/02 11:25:45;;;;;;;11.98;8.48;;;;;;;;;;5023538;28;20129;-83
2022/03/02 11:28:17;;;;;;;11.07;7.50;;;;;;;;;;5017172;28;20504;-82
2022/03/02 11:31:04;;;;;;;13.60;8.13;;;;;;;;;;5020464;28;20041;-83
2022/03/02 11:33:30;;;;;;;11.45;7.22;;;;;;;;;;5022173;28;20111;-83
2022/03/02 11:36:06;;;;;;;9.05;6.38;;;;;;;;;;5018002;28;20034;-87
2022/03/02 11:38:32;;;;;;;13.20;8.23;;;;;;;;;;5018064;28;20026;-86
2022/03/02 11:40:59;;;;;;;11.43;6.45;;;;;;;;;;5025290;28;20032;-84
2022/03/02 11:43:28;;;;;;;10.45;6.75;;;;;;;;;;5016594;28;20037;-85
2022/03/02 11:45:58;;;;;;;11.45;7.35;;;;;;;;;;5016774;28;20114;-82
2022/03/02 11:48:30;;;;;;;10.88;6.63;;;;;;;;;;5021310;28;20022;-86
2022/03/02 11:51:04;;;;;;;11.55;7.20;;;;;;;;;;5016047;28;20030;-83
2022/03/02 11:53:33;;;;;;;15.52;8.48;;;;;;;;;;5021133;28;20040;-86
2022/03/02 11:56:01;;;;;;;11.10;6.60;;;;;;;;;;5023213;28;20025;-83
2022/03/02 11:58:26;;;;;;;11.80;7.75;;;;;;;;;;5022761;28;20018;-85
2022/03/02 12:01:04;;;;;;;11.40;6.65;;;;;;;;;;5023672;28;20035;-87
2022/03/02 12:03:30;;;;;;;11.35;7.53;;;;;;;;;;5021722;28;20033;-86
2022/03/02 12:06:05;;;;;;;8.68;6.85;;;;;;;;;;5018056;28;20124;-85
2022/03/02 12:08:33;;;;;;;11.60;7.40;;;;;;;;;;5012682;28;20021;-83
2022/03/02 12:11:02;;;;;;;10.80;6.38;;;;;;;;;;5017291;28;20032;-86
2022/03/02 12:13:27;;;;;;;11.77;7.40;;;;;;;;;;5036831;28;20040;-87
2022/03/02 12:15:55;;;;;;;10.63;7.03;;;;;;;;;;5022436;28;20485;-85
2022/03/02 12:18:21;;;;;;;11.02;7.03;;;;;;;;;;5019252;28;20065;-90
2022/03/02 12:20:51;;;;;;;10.88;6.72;;;;;;;;;;5025580;28;20029;-86
2022/03/02 12:23:28;;;;;;;12.85;8.48;;;;;;;;;;5017327;28;20033;-83
2022/03/02 12:25:57;;;;;;;12.55;7.93;;;;;;;;;;5019512;28;20034;-85
2022/03/02 12:28:24;;;;;;;10.90;7.95;;;;;;;;;;5023299;28;20056;-84
2022/03/02 12:30:49;;;;;;;12.35;8.20;;;;;;;;;;5015913;28;20036;-86
2022/03/02 12:33:23;;;;;;;11.68;6.40;;;;;;;;;;5021033;28;20026;-86
2022/03/02 12:35:49;;;;;;;9.75;6.35;;;;;;;;;;5020589;28;20512;-83
2022/03/02 12:38:15;;;;;;;9.57;7.13;;;;;;;;;;5016088;28;20084;-83
2022/03/02 12:40:42;;;;;;;9.85;6.10;;;;;;;;;;5022792;28;20751;-83
2022/03/02 12:43:16;;;;;;;9.88;6.35;;;;;;;;;;5015708;28;20026;-86
2022/03/02 12:45:50;;;;;;;10.82;6.80;;;;;;;;;;5022515;28;20029;-82
2022/03/02 12:48:18;;;;;;;13.93;6.88;;;;;;;;;;5018582;28;20027;-83
2022/03/02 12:50:47;;;;;;;7.82;5.45;;;;;;;;;;5016745;28;20024;-83
2022/03/02 12:53:14;;;;;;;7.50;5.17;;;;;;;;;;5018185;28;20064;-84
2022/03/02 12:55:42;;;;;;;9.90;6.50;;;;;;;;;;5017959;28;20275;-85
2022/03/02 12:58:09;;;;;;;6.60;4.63;;;;;;;;;;5019412;28;20116;-84
2022/03/02 13:00:34;;;;;;;7.25;5.78;;;;;;;;;;5024337;28;20101;-86
2022/03/02 13:03:00;;;;;;;7.07;5.43;;;;;;;;;;5018354;28;20113;-82
2022/03/02 13:05:37;;;;;;;9.88;5.78;;;;;;;;;;5024026;28;20046;-86
2022/03/02 13:08:13;;;;;;;9.85;6.57;;;;;;;;;;5020849;28;20029;-83
2022/03/02 13:10:43;;;;;;;9.52;6.30;;;;;;;;;;5019346;28;20047;-82
2022/03/02 13:13:09;;;;;;;7.57;5.97;;;;;;;;;;5019559;28;20028;-83
2022/03/02 13:15:38;;;;;;;10.65;5.97;;;;;;;;;;5018592;28;20112;-84
2022/03/02 13:18:17;;;;;;;10.45;6.50;;;;;;;;;;5014625;28;20054;-82
2022/03/02 13:21:12;;;;;;;11.90;7.25;;;;;;;;;;5021192;28;20069;-83
2022/03/02 13:23:38;;;;;;;13.43;9.00;;;;;;;;;;5018338;28;20117;-85
2022/03/02 13:26:03;;;;;;;10.98;7.35;;;;;;;;;;5018157;28;20156;-81
2022/03/02 13:28:33;;;;;;;19.40;9.32;;;;;;;;;;5026419;28;20044;-84
2022/03/02 13:31:14;;;;;;;13.95;8.07;;;;;;;;;;5019538;28;20032;-81
2022/03/02 13:33:57;;;;;;;12.00;7.72;;;;;;;;;;5018522;28;20388;-80
2022/03/02 13:36:36;;;;;;;14.55;8.82;;;;;;;;;;5021323;28;20033;-86
2022/03/02 13:39:14;;;;;;;11.50;8.43;;;;;;;;;;5018109;28;20045;-83
2022/03/02 13:41:41;;;;;;;11.82;7.40;;;;;;;;;;5037099;28;20516;-83
2022/03/02 13:44:19;;;;;;;11.43;7.63;;;;;;;;;;5018502;28;20089;-85
2022/03/02 13:46:44;;;;;;;11.05;6.53;;;;;;;;;;5015142;28;20025;-85
2022/03/02 13:49:10;;;;;;;10.40;6.05;;;;;;;;;;5019021;28;20412;-84
2022/03/02 13:51:49;;;;;;;12.15;7.07;;;;;;;;;;5018251;28;20133;-83
2022/03/02 13:54:25;;;;;;;11.55;8.00;;;;;;;;;;5029446;28;20030;-85
2022/03/02 13:56:50;;;;;;;10.43;7.40;;;;;;;;;;5010148;28;20025;-86
2022/03/02 13:59:18;;;;;;;11.15;6.28;;;;;;;;;;5010599;28;20649;-84
2022/03/02 14:01:43;;;;;;;11.20;7.85;;;;;;;;;;5015380;28;20021;-88
2022/03/02 14:04:12;;;;;;;10.65;6.95;;;;;;;;;;5017565;28;20036;-86
2022/03/02 14:06:41;;;;;;;12.55;8.07;;;;;;;;;;5025339;28;20042;-88
2022/03/02 14:09:18;;;;;;;12.80;6.03;;;;;;;;;;5017979;28;20489;-85
2022/03/02 14:15:48;;;;;;;;;;;;;;;;;;;;;
2022/03/02 14:18:21;;;;;;;8.35;5.80;;;;;;;;;;5023597;28;20084;-85
2022/03/02 14:20:46;;;;;;;13.05;7.68;;;;;;;;;;5008033;28;20056;-88
2022/03/02 14:23:14;;;;;;;12.95;8.80;;;;;;;;;;5004711;28;20040;-86
2022/03/02 14:25:40;;;;;;;15.32;7.07;;;;;;;;;;5019319;28;20088;-84
2022/03/02 14:28:13;;;;;;;9.32;6.80;;;;;;;;;;5019766;28;22218;-87
2022/03/02 14:30:41;;;;;;;12.90;8.85;;;;;;;;;;5020467;28;20119;-85
2022/03/02 14:33:12;;;;;;;20.70;13.10;;;;;;;;;;5024065;28;20168;-84
2022/03/02 14:35:37;;;;;;;14.68;9.82;;;;;;;;;;5022668;28;20079;-85
2022/03/02 14:38:05;;;;;;;13.70;8.27;;;;;;;;;;5004279;28;20033;-85
2022/03/02 14:40:36;;;;;;;10.98;6.78;;;;;;;;;;5001368;28;20037;-84
2022/03/02 14:43:05;;;;;;;12.02;7.75;;;;;;;;;;5005669;28;20021;-84
2022/03/02 14:45:34;;;;;;;10.98;6.25;;;;;;;;;;5023746;28;20025;-80